sensor_id;sensor_type;location;lat;lon;timestamp;temperature;humidity
41720;DHT22;27405;53.316;-6.294;2023-08-21T00:00:19;17.90;99.90
41720;DHT22;27405;53.316;-6.294;2023-08-21T00:02:45;17.90;99.90
41720;DHT22;27405;53.316;-6.294;2023-08-21T00:05:12;17.90;99.90
41720;DHT22;27405;53.316;-6.294;2023-08-21T00:07:38;17.90;99.90
41720;DHT22;27405;53.316;-6.294;2023-08-21T00:10:05;17.90;99.90
41720;DHT22;27405;53.316;-6.294;2023-08-21T00:12:31;17.90;99.90
41720;DHT22;27405;53.316;-6.294;2023-08-21T00:14:58;17.90;99.90
41720;DHT22;27405;53.316;-6.294;2023-08-21T00:17:24;17.90;99.90
41720;DHT22;27405;53.316;-6.294;2023-08-21T00:19:50;17.90;99.90
41720;DHT22;27405;53.316;-6.294;2023-08-21T00:22:16;18.00;99.90
41720;DHT22;27405;53.316;-6.294;2023-08-21T00:24:43;17.90;99.90
41720;DHT22;27405;53.316;-6.294;2023-08-21T00:27:09;17.90;99.90
41720;DHT22;27405;53.316;-6.294;2023-08-21T00:29:35;17.90;99.90
41720;DHT22;27405;53.316;-6.294;2023-08-21T00:32:01;17.90;99.90
41720;DHT22;27405;53.316;-6.294;2023-08-21T00:34:27;17.90;99.90
41720;DHT22;27405;53.316;-6.294;2023-08-21T00:36:54;17.90;99.90
41720;DHT22;27405;53.316;-6.294;2023-08-21T00:39:20;17.90;99.90
41720;DHT22;27405;53.316;-6.294;2023-08-21T00:41:46;17.90;99.90
41720;DHT22;27405;53.316;-6.294;2023-08-21T00:44:13;17.90;99.90
41720;DHT22;27405;53.316;-6.294;2023-08-21T00:46:39;17.90;99.90
41720;DHT22;27405;53.316;-6.294;2023-08-21T00:49:05;17.90;99.90
41720;DHT22;27405;53.316;-6.294;2023-08-21T00:51:32;17.80;99.90
41720;DHT22;27405;53.316;-6.294;2023-08-21T00:53:58;17.80;99.90
41720;DHT22;27405;53.316;-6.294;2023-08-21T00:56:25;17.80;99.90
41720;DHT22;27405;53.316;-6.294;2023-08-21T00:58:51;17.80;99.90
41720;DHT22;27405;53.316;-6.294;2023-08-21T01:01:18;17.80;99.90
41720;DHT22;27405;53.316;-6.294;2023-08-21T01:03:45;17.80;99.90
41720;DHT22;27405;53.316;-6.294;2023-08-21T01:06:11;17.80;99.90
41720;DHT22;27405;53.316;-6.294;2023-08-21T01:08:48;17.80;99.90
41720;DHT22;27405;53.316;-6.294;2023-08-21T01:11:25;17.70;99.90
41720;DHT22;27405;53.316;-6.294;2023-08-21T01:19:59;17.70;99.90
41720;DHT22;27405;53.316;-6.294;2023-08-21T01:25:47;17.70;99.90
41720;DHT22;27405;53.316;-6.294;2023-08-21T01:28:13;17.70;99.90
41720;DHT22;27405;53.316;-6.294;2023-08-21T01:30:39;17.70;99.90
41720;DHT22;27405;53.316;-6.294;2023-08-21T01:33:06;17.70;99.90
41720;DHT22;27405;53.316;-6.294;2023-08-21T01:35:36;17.70;99.90
41720;DHT22;27405;53.316;-6.294;2023-08-21T01:38:05;17.70;99.90
41720;DHT22;27405;53.316;-6.294;2023-08-21T01:40:32;17.70;99.90
41720;DHT22;27405;53.316;-6.294;2023-08-21T01:42:58;17.60;99.90
41720;DHT22;27405;53.316;-6.294;2023-08-21T01:45:24;17.70;99.90
41720;DHT22;27405;53.316;-6.294;2023-08-21T01:47:50;17.60;99.90
41720;DHT22;27405;53.316;-6.294;2023-08-21T01:50:16;17.60;99.90
41720;DHT22;27405;53.316;-6.294;2023-08-21T01:52:42;17.60;99.90
41720;DHT22;27405;53.316;-6.294;2023-08-21T01:55:08;17.60;99.90
41720;DHT22;27405;53.316;-6.294;2023-08-21T01:57:35;17.60;99.90
41720;DHT22;27405;53.316;-6.294;2023-08-21T02:00:02;17.60;99.90
41720;DHT22;27405;53.316;-6.294;2023-08-21T02:02:30;17.60;99.90
41720;DHT22;27405;53.316;-6.294;2023-08-21T02:04:56;17.50;99.90
41720;DHT22;27405;53.316;-6.294;2023-08-21T02:07:22;17.50;99.90
41720;DHT22;27405;53.316;-6.294;2023-08-21T02:09:48;17.50;99.90
41720;DHT22;27405;53.316;-6.294;2023-08-21T02:12:14;17.40;99.90
41720;DHT22;27405;53.316;-6.294;2023-08-21T02:14:40;17.50;99.90
41720;DHT22;27405;53.316;-6.294;2023-08-21T02:17:06;17.40;99.90
41720;DHT22;27405;53.316;-6.294;2023-08-21T02:19:32;17.40;99.90
41720;DHT22;27405;53.316;-6.294;2023-08-21T02:21:58;17.40;99.90
41720;DHT22;27405;53.316;-6.294;2023-08-21T02:24:24;17.40;99.90
41720;DHT22;27405;53.316;-6.294;2023-08-21T02:26:50;17.40;99.90
41720;DHT22;27405;53.316;-6.294;2023-08-21T02:29:16;17.40;99.90
41720;DHT22;27405;53.316;-6.294;2023-08-21T02:31:42;17.40;99.90
41720;DHT22;27405;53.316;-6.294;2023-08-21T02:34:08;17.40;99.90
41720;DHT22;27405;53.316;-6.294;2023-08-21T02:36:34;17.40;99.90
41720;DHT22;27405;53.316;-6.294;2023-08-21T02:39:00;17.40;99.90
41720;DHT22;27405;53.316;-6.294;2023-08-21T02:41:26;17.40;99.90
41720;DHT22;27405;53.316;-6.294;2023-08-21T02:43:51;17.40;99.90
41720;DHT22;27405;53.316;-6.294;2023-08-21T02:46:17;17.40;99.90
41720;DHT22;27405;53.316;-6.294;2023-08-21T02:48:43;17.40;99.90
41720;DHT22;27405;53.316;-6.294;2023-08-21T02:51:09;17.40;99.90
41720;DHT22;27405;53.316;-6.294;2023-08-21T02:53:35;17.50;99.90
41720;DHT22;27405;53.316;-6.294;2023-08-21T02:56:01;17.40;99.90
41720;DHT22;27405;53.316;-6.294;2023-08-21T02:58:27;17.40;99.90
41720;DHT22;27405;53.316;-6.294;2023-08-21T03:00:53;17.50;99.90
41720;DHT22;27405;53.316;-6.294;2023-08-21T03:03:19;17.50;99.90
41720;DHT22;27405;53.316;-6.294;2023-08-21T03:05:45;17.50;99.90
41720;DHT22;27405;53.316;-6.294;2023-08-21T03:08:11;17.40;99.90
41720;DHT22;27405;53.316;-6.294;2023-08-21T03:10:37;17.50;99.90
41720;DHT22;27405;53.316;-6.294;2023-08-21T03:13:03;17.40;99.90
41720;DHT22;27405;53.316;-6.294;2023-08-21T03:15:29;17.40;99.90
41720;DHT22;27405;53.316;-6.294;2023-08-21T03:17:55;17.40;99.90
41720;DHT22;27405;53.316;-6.294;2023-08-21T03:20:21;17.40;99.90
41720;DHT22;27405;53.316;-6.294;2023-08-21T03:22:47;17.40;99.90
41720;DHT22;27405;53.316;-6.294;2023-08-21T03:25:13;17.40;99.90
41720;DHT22;27405;53.316;-6.294;2023-08-21T03:27:39;17.40;99.90
41720;DHT22;27405;53.316;-6.294;2023-08-21T03:30:07;17.40;99.90
41720;DHT22;27405;53.316;-6.294;2023-08-21T03:32:33;17.40;99.90
41720;DHT22;27405;53.316;-6.294;2023-08-21T03:34:59;17.40;99.90
41720;DHT22;27405;53.316;-6.294;2023-08-21T03:37:25;17.40;99.90
41720;DHT22;27405;53.316;-6.294;2023-08-21T03:39:51;17.40;99.90
41720;DHT22;27405;53.316;-6.294;2023-08-21T03:42:17;17.40;99.90
41720;DHT22;27405;53.316;-6.294;2023-08-21T03:44:43;17.30;99.90
41720;DHT22;27405;53.316;-6.294;2023-08-21T03:47:09;17.40;99.90
41720;DHT22;27405;53.316;-6.294;2023-08-21T03:49:36;17.40;99.90
41720;DHT22;27405;53.316;-6.294;2023-08-21T03:52:02;17.30;99.90
41720;DHT22;27405;53.316;-6.294;2023-08-21T03:54:28;17.30;99.90
41720;DHT22;27405;53.316;-6.294;2023-08-21T03:56:54;17.40;99.90
41720;DHT22;27405;53.316;-6.294;2023-08-21T03:59:20;17.30;99.90
41720;DHT22;27405;53.316;-6.294;2023-08-21T04:01:46;17.30;99.90
41720;DHT22;27405;53.316;-6.294;2023-08-21T04:04:12;17.30;99.90
41720;DHT22;27405;53.316;-6.294;2023-08-21T04:06:38;17.30;99.90
41720;DHT22;27405;53.316;-6.294;2023-08-21T04:09:04;17.40;99.90
41720;DHT22;27405;53.316;-6.294;2023-08-21T04:11:32;17.30;99.90
41720;DHT22;27405;53.316;-6.294;2023-08-21T04:13:58;17.40;99.90
41720;DHT22;27405;53.316;-6.294;2023-08-21T04:16:25;17.40;99.90
41720;DHT22;27405;53.316;-6.294;2023-08-21T04:18:50;17.40;99.90
41720;DHT22;27405;53.316;-6.294;2023-08-21T04:21:16;17.40;99.90
41720;DHT22;27405;53.316;-6.294;2023-08-21T04:23:44;17.40;99.90
41720;DHT22;27405;53.316;-6.294;2023-08-21T04:26:11;17.40;99.90
41720;DHT22;27405;53.316;-6.294;2023-08-21T04:28:37;17.40;99.90
41720;DHT22;27405;53.316;-6.294;2023-08-21T04:31:07;17.40;99.90
41720;DHT22;27405;53.316;-6.294;2023-08-21T04:33:33;17.50;99.90
41720;DHT22;27405;53.316;-6.294;2023-08-21T04:36:00;17.40;99.90
41720;DHT22;27405;53.316;-6.294;2023-08-21T04:38:26;17.50;99.90
41720;DHT22;27405;53.316;-6.294;2023-08-21T04:40:52;17.50;99.90
41720;DHT22;27405;53.316;-6.294;2023-08-21T04:43:18;17.50;99.90
41720;DHT22;27405;53.316;-6.294;2023-08-21T04:45:51;17.50;99.90
41720;DHT22;27405;53.316;-6.294;2023-08-21T04:48:20;17.50;99.90
41720;DHT22;27405;53.316;-6.294;2023-08-21T04:50:47;17.50;99.90
41720;DHT22;27405;53.316;-6.294;2023-08-21T04:53:13;17.50;99.90
41720;DHT22;27405;53.316;-6.294;2023-08-21T04:55:40;17.50;99.90
41720;DHT22;27405;53.316;-6.294;2023-08-21T04:58:07;17.50;99.90
41720;DHT22;27405;53.316;-6.294;2023-08-21T05:00:33;17.60;99.90
41720;DHT22;27405;53.316;-6.294;2023-08-21T05:02:59;17.60;99.90
41720;DHT22;27405;53.316;-6.294;2023-08-21T05:05:25;17.60;99.90
41720;DHT22;27405;53.316;-6.294;2023-08-21T05:07:53;17.70;99.90
41720;DHT22;27405;53.316;-6.294;2023-08-21T05:10:19;17.70;99.90
41720;DHT22;27405;53.316;-6.294;2023-08-21T05:12:46;17.70;99.90
41720;DHT22;27405;53.316;-6.294;2023-08-21T05:15:12;17.60;99.90
41720;DHT22;27405;53.316;-6.294;2023-08-21T05:17:40;17.70;99.90
41720;DHT22;27405;53.316;-6.294;2023-08-21T05:20:06;17.60;99.90
41720;DHT22;27405;53.316;-6.294;2023-08-21T05:22:32;17.70;99.90
41720;DHT22;27405;53.316;-6.294;2023-08-21T05:24:58;17.70;99.90
41720;DHT22;27405;53.316;-6.294;2023-08-21T05:27:24;17.70;99.90
41720;DHT22;27405;53.316;-6.294;2023-08-21T05:29:50;17.70;99.90
41720;DHT22;27405;53.316;-6.294;2023-08-21T05:32:17;17.70;99.90
41720;DHT22;27405;53.316;-6.294;2023-08-21T05:34:43;17.70;99.90
41720;DHT22;27405;53.316;-6.294;2023-08-21T05:37:09;17.70;99.90
41720;DHT22;27405;53.316;-6.294;2023-08-21T05:39:35;17.80;99.90
41720;DHT22;27405;53.316;-6.294;2023-08-21T05:42:01;17.80;99.90
41720;DHT22;27405;53.316;-6.294;2023-08-21T05:44:27;17.90;99.90
41720;DHT22;27405;53.316;-6.294;2023-08-21T05:46:53;18.00;99.90
41720;DHT22;27405;53.316;-6.294;2023-08-21T05:49:19;18.00;99.90
41720;DHT22;27405;53.316;-6.294;2023-08-21T05:51:45;18.10;99.90
41720;DHT22;27405;53.316;-6.294;2023-08-21T05:54:11;18.20;99.90
41720;DHT22;27405;53.316;-6.294;2023-08-21T05:56:37;18.20;99.90
41720;DHT22;27405;53.316;-6.294;2023-08-21T05:59:03;18.30;99.90
41720;DHT22;27405;53.316;-6.294;2023-08-21T06:01:29;18.30;99.90
41720;DHT22;27405;53.316;-6.294;2023-08-21T06:03:57;18.30;99.90
41720;DHT22;27405;53.316;-6.294;2023-08-21T06:06:23;18.30;99.90
41720;DHT22;27405;53.316;-6.294;2023-08-21T06:08:49;18.30;99.90
41720;DHT22;27405;53.316;-6.294;2023-08-21T06:11:15;18.30;99.90
41720;DHT22;27405;53.316;-6.294;2023-08-21T06:13:41;18.30;99.90
41720;DHT22;27405;53.316;-6.294;2023-08-21T06:16:07;18.20;99.90
41720;DHT22;27405;53.316;-6.294;2023-08-21T06:18:33;18.20;99.90
41720;DHT22;27405;53.316;-6.294;2023-08-21T06:20:59;18.20;99.90
41720;DHT22;27405;53.316;-6.294;2023-08-21T06:23:25;18.20;99.90
41720;DHT22;27405;53.316;-6.294;2023-08-21T06:25:51;18.20;99.90
41720;DHT22;27405;53.316;-6.294;2023-08-21T06:28:17;18.20;99.90
41720;DHT22;27405;53.316;-6.294;2023-08-21T06:34:05;18.30;99.90
41720;DHT22;27405;53.316;-6.294;2023-08-21T06:36:31;18.30;99.90
41720;DHT22;27405;53.316;-6.294;2023-08-21T06:38:57;18.30;99.90
41720;DHT22;27405;53.316;-6.294;2023-08-21T06:41:23;18.40;99.90
41720;DHT22;27405;53.316;-6.294;2023-08-21T06:43:51;18.40;99.90
41720;DHT22;27405;53.316;-6.294;2023-08-21T06:46:17;18.40;99.90
41720;DHT22;27405;53.316;-6.294;2023-08-21T06:48:43;18.40;99.90
41720;DHT22;27405;53.316;-6.294;2023-08-21T06:51:09;18.40;99.90
41720;DHT22;27405;53.316;-6.294;2023-08-21T06:53:36;18.40;99.90
41720;DHT22;27405;53.316;-6.294;2023-08-21T06:56:02;18.40;99.90
41720;DHT22;27405;53.316;-6.294;2023-08-21T06:58:29;18.40;99.90
41720;DHT22;27405;53.316;-6.294;2023-08-21T07:00:55;18.40;99.90
41720;DHT22;27405;53.316;-6.294;2023-08-21T07:03:24;18.40;99.90
41720;DHT22;27405;53.316;-6.294;2023-08-21T07:05:57;18.40;99.90
41720;DHT22;27405;53.316;-6.294;2023-08-21T07:08:23;18.40;99.90
41720;DHT22;27405;53.316;-6.294;2023-08-21T07:10:50;18.40;99.90
41720;DHT22;27405;53.316;-6.294;2023-08-21T07:13:16;18.50;99.90
41720;DHT22;27405;53.316;-6.294;2023-08-21T07:15:42;18.40;99.90
41720;DHT22;27405;53.316;-6.294;2023-08-21T07:18:08;18.50;99.90
41720;DHT22;27405;53.316;-6.294;2023-08-21T07:20:34;18.50;99.90
41720;DHT22;27405;53.316;-6.294;2023-08-21T07:23:00;18.50;99.90
41720;DHT22;27405;53.316;-6.294;2023-08-21T07:25:26;18.50;99.90
41720;DHT22;27405;53.316;-6.294;2023-08-21T07:27:54;18.60;99.90
41720;DHT22;27405;53.316;-6.294;2023-08-21T07:30:21;18.60;99.90
41720;DHT22;27405;53.316;-6.294;2023-08-21T07:32:48;18.60;99.90
41720;DHT22;27405;53.316;-6.294;2023-08-21T07:35:15;18.70;99.90
41720;DHT22;27405;53.316;-6.294;2023-08-21T07:37:44;18.70;99.90
41720;DHT22;27405;53.316;-6.294;2023-08-21T07:40:11;18.70;99.90
41720;DHT22;27405;53.316;-6.294;2023-08-21T07:42:37;18.70;99.90
41720;DHT22;27405;53.316;-6.294;2023-08-21T07:45:04;18.70;99.90
41720;DHT22;27405;53.316;-6.294;2023-08-21T07:47:30;18.70;99.90
41720;DHT22;27405;53.316;-6.294;2023-08-21T07:49:57;18.70;99.90
41720;DHT22;27405;53.316;-6.294;2023-08-21T07:52:26;18.80;99.90
41720;DHT22;27405;53.316;-6.294;2023-08-21T07:54:53;18.80;99.90
41720;DHT22;27405;53.316;-6.294;2023-08-21T07:57:19;18.90;99.90
41720;DHT22;27405;53.316;-6.294;2023-08-21T07:59:45;18.90;99.90
41720;DHT22;27405;53.316;-6.294;2023-08-21T08:02:11;18.90;99.90
41720;DHT22;27405;53.316;-6.294;2023-08-21T08:04:38;18.90;99.90
41720;DHT22;27405;53.316;-6.294;2023-08-21T08:07:04;18.90;99.90
41720;DHT22;27405;53.316;-6.294;2023-08-21T08:09:30;18.90;99.90
41720;DHT22;27405;53.316;-6.294;2023-08-21T08:11:56;19.00;99.90
41720;DHT22;27405;53.316;-6.294;2023-08-21T08:14:22;19.00;99.90
41720;DHT22;27405;53.316;-6.294;2023-08-21T08:16:48;19.00;99.90
41720;DHT22;27405;53.316;-6.294;2023-08-21T08:19:14;19.00;99.90
41720;DHT22;27405;53.316;-6.294;2023-08-21T08:21:40;19.10;99.90
41720;DHT22;27405;53.316;-6.294;2023-08-21T08:24:06;19.10;99.90
41720;DHT22;27405;53.316;-6.294;2023-08-21T08:26:32;19.10;99.90
41720;DHT22;27405;53.316;-6.294;2023-08-21T08:28:58;19.20;99.90
41720;DHT22;27405;53.316;-6.294;2023-08-21T08:34:46;19.20;99.90
41720;DHT22;27405;53.316;-6.294;2023-08-21T08:37:12;19.30;99.90
41720;DHT22;27405;53.316;-6.294;2023-08-21T08:43:00;19.40;99.90
41720;DHT22;27405;53.316;-6.294;2023-08-21T08:45:29;19.40;99.90
41720;DHT22;27405;53.316;-6.294;2023-08-21T08:48:00;19.40;99.90
41720;DHT22;27405;53.316;-6.294;2023-08-21T08:50:30;19.50;99.90
41720;DHT22;27405;53.316;-6.294;2023-08-21T08:52:57;19.50;99.90
41720;DHT22;27405;53.316;-6.294;2023-08-21T08:55:24;19.60;99.90
41720;DHT22;27405;53.316;-6.294;2023-08-21T08:57:51;19.60;99.90
41720;DHT22;27405;53.316;-6.294;2023-08-21T09:00:18;19.70;99.90
41720;DHT22;27405;53.316;-6.294;2023-08-21T09:02:45;19.70;99.90
41720;DHT22;27405;53.316;-6.294;2023-08-21T09:05:12;19.70;99.90
41720;DHT22;27405;53.316;-6.294;2023-08-21T09:07:38;19.70;99.90
41720;DHT22;27405;53.316;-6.294;2023-08-21T09:10:13;19.70;99.90
41720;DHT22;27405;53.316;-6.294;2023-08-21T09:12:39;19.70;99.90
41720;DHT22;27405;53.316;-6.294;2023-08-21T09:15:08;19.80;99.90
41720;DHT22;27405;53.316;-6.294;2023-08-21T09:17:34;19.80;99.90
41720;DHT22;27405;53.316;-6.294;2023-08-21T09:20:04;19.90;99.90
41720;DHT22;27405;53.316;-6.294;2023-08-21T09:22:30;19.90;99.90
41720;DHT22;27405;53.316;-6.294;2023-08-21T09:25:07;20.00;99.90
41720;DHT22;27405;53.316;-6.294;2023-08-21T09:27:39;20.00;99.90
41720;DHT22;27405;53.316;-6.294;2023-08-21T09:30:08;20.10;99.90
41720;DHT22;27405;53.316;-6.294;2023-08-21T09:32:58;20.10;99.90
41720;DHT22;27405;53.316;-6.294;2023-08-21T09:35:26;20.20;99.90
41720;DHT22;27405;53.316;-6.294;2023-08-21T09:37:52;20.30;99.90
41720;DHT22;27405;53.316;-6.294;2023-08-21T09:40:19;20.30;99.60
41720;DHT22;27405;53.316;-6.294;2023-08-21T09:42:57;20.40;99.50
41720;DHT22;27405;53.316;-6.294;2023-08-21T09:45:26;20.40;99.10
41720;DHT22;27405;53.316;-6.294;2023-08-21T09:47:53;20.50;99.10
41720;DHT22;27405;53.316;-6.294;2023-08-21T09:50:21;20.50;99.30
41720;DHT22;27405;53.316;-6.294;2023-08-21T09:52:48;20.60;98.90
41720;DHT22;27405;53.316;-6.294;2023-08-21T09:55:14;20.60;98.60
41720;DHT22;27405;53.316;-6.294;2023-08-21T09:57:41;20.70;98.50
41720;DHT22;27405;53.316;-6.294;2023-08-21T10:00:08;20.70;98.20
41720;DHT22;27405;53.316;-6.294;2023-08-21T10:02:46;20.70;98.10
41720;DHT22;27405;53.316;-6.294;2023-08-21T10:05:16;20.80;97.80
41720;DHT22;27405;53.316;-6.294;2023-08-21T10:07:45;20.80;97.70
41720;DHT22;27405;53.316;-6.294;2023-08-21T10:10:13;20.80;97.40
41720;DHT22;27405;53.316;-6.294;2023-08-21T10:12:39;20.80;97.50
41720;DHT22;27405;53.316;-6.294;2023-08-21T10:15:07;20.80;97.40
41720;DHT22;27405;53.316;-6.294;2023-08-21T10:17:35;20.90;97.10
41720;DHT22;27405;53.316;-6.294;2023-08-21T10:20:06;21.00;97.00
41720;DHT22;27405;53.316;-6.294;2023-08-21T10:23:00;21.10;96.70
41720;DHT22;27405;53.316;-6.294;2023-08-21T10:25:29;21.20;96.80
41720;DHT22;27405;53.316;-6.294;2023-08-21T10:27:56;21.20;96.60
41720;DHT22;27405;53.316;-6.294;2023-08-21T10:30:25;21.20;96.50
41720;DHT22;27405;53.316;-6.294;2023-08-21T10:32:54;21.20;96.50
41720;DHT22;27405;53.316;-6.294;2023-08-21T10:35:31;21.10;96.40
41720;DHT22;27405;53.316;-6.294;2023-08-21T10:38:12;21.00;96.40
41720;DHT22;27405;53.316;-6.294;2023-08-21T10:44:01;20.90;96.70
41720;DHT22;27405;53.316;-6.294;2023-08-21T10:46:51;20.90;96.60
41720;DHT22;27405;53.316;-6.294;2023-08-21T10:49:17;21.00;96.80
41720;DHT22;27405;53.316;-6.294;2023-08-21T10:51:44;21.10;96.70
41720;DHT22;27405;53.316;-6.294;2023-08-21T10:54:16;21.30;96.30
41720;DHT22;27405;53.316;-6.294;2023-08-21T10:56:42;21.40;96.00
41720;DHT22;27405;53.316;-6.294;2023-08-21T10:59:08;21.40;96.00
41720;DHT22;27405;53.316;-6.294;2023-08-21T11:01:44;21.50;95.70
41720;DHT22;27405;53.316;-6.294;2023-08-21T11:04:12;21.50;95.30
41720;DHT22;27405;53.316;-6.294;2023-08-21T11:06:38;21.60;95.30
41720;DHT22;27405;53.316;-6.294;2023-08-21T11:09:05;21.60;95.10
41720;DHT22;27405;53.316;-6.294;2023-08-21T11:11:37;21.80;95.00
41720;DHT22;27405;53.316;-6.294;2023-08-21T11:14:03;21.90;94.80
41720;DHT22;27405;53.316;-6.294;2023-08-21T11:16:29;22.00;94.60
41720;DHT22;27405;53.316;-6.294;2023-08-21T11:18:55;22.10;94.60
41720;DHT22;27405;53.316;-6.294;2023-08-21T11:21:23;22.20;94.50
41720;DHT22;27405;53.316;-6.294;2023-08-21T11:23:50;22.30;94.20
41720;DHT22;27405;53.316;-6.294;2023-08-21T11:26:17;22.20;94.10
41720;DHT22;27405;53.316;-6.294;2023-08-21T11:28:44;22.20;94.20
41720;DHT22;27405;53.316;-6.294;2023-08-21T11:31:10;22.20;94.20
41720;DHT22;27405;53.316;-6.294;2023-08-21T11:33:37;22.10;94.20
41720;DHT22;27405;53.316;-6.294;2023-08-21T11:36:05;22.10;94.50
41720;DHT22;27405;53.316;-6.294;2023-08-21T11:38:31;22.10;94.40
41720;DHT22;27405;53.316;-6.294;2023-08-21T11:40:58;22.00;94.20
41720;DHT22;27405;53.316;-6.294;2023-08-21T11:43:39;21.90;94.10
41720;DHT22;27405;53.316;-6.294;2023-08-21T11:46:06;21.80;94.30
41720;DHT22;27405;53.316;-6.294;2023-08-21T11:48:33;21.70;94.40
41720;DHT22;27405;53.316;-6.294;2023-08-21T11:51:01;21.60;94.60
41720;DHT22;27405;53.316;-6.294;2023-08-21T11:53:39;21.50;94.70
41720;DHT22;27405;53.316;-6.294;2023-08-21T11:56:16;21.40;94.80
41720;DHT22;27405;53.316;-6.294;2023-08-21T11:58:44;21.40;94.90
41720;DHT22;27405;53.316;-6.294;2023-08-21T12:04:36;21.50;94.70
41720;DHT22;27405;53.316;-6.294;2023-08-21T12:07:03;21.50;94.50
41720;DHT22;27405;53.316;-6.294;2023-08-21T12:09:28;21.50;94.50
41720;DHT22;27405;53.316;-6.294;2023-08-21T12:11:54;21.60;94.70
41720;DHT22;27405;53.316;-6.294;2023-08-21T12:14:21;21.90;94.60
41720;DHT22;27405;53.316;-6.294;2023-08-21T12:16:47;22.20;94.30
41720;DHT22;27405;53.316;-6.294;2023-08-21T12:19:12;22.50;94.20
41720;DHT22;27405;53.316;-6.294;2023-08-21T12:21:40;22.80;93.70
41720;DHT22;27405;53.316;-6.294;2023-08-21T12:24:06;22.90;93.30
41720;DHT22;27405;53.316;-6.294;2023-08-21T12:26:33;22.90;92.50
41720;DHT22;27405;53.316;-6.294;2023-08-21T12:29:00;22.80;91.90
41720;DHT22;27405;53.316;-6.294;2023-08-21T12:31:27;22.70;91.80
41720;DHT22;27405;53.316;-6.294;2023-08-21T12:33:53;22.60;92.10
41720;DHT22;27405;53.316;-6.294;2023-08-21T12:36:19;22.60;91.90
41720;DHT22;27405;53.316;-6.294;2023-08-21T12:38:45;22.50;91.70
41720;DHT22;27405;53.316;-6.294;2023-08-21T12:41:11;22.60;91.80
41720;DHT22;27405;53.316;-6.294;2023-08-21T12:43:37;22.80;92.00
41720;DHT22;27405;53.316;-6.294;2023-08-21T12:46:03;22.80;92.10
41720;DHT22;27405;53.316;-6.294;2023-08-21T12:48:29;23.00;92.10
41720;DHT22;27405;53.316;-6.294;2023-08-21T12:50:55;23.20;91.90
41720;DHT22;27405;53.316;-6.294;2023-08-21T12:53:21;23.30;91.60
41720;DHT22;27405;53.316;-6.294;2023-08-21T12:55:47;23.40;91.40
41720;DHT22;27405;53.316;-6.294;2023-08-21T12:58:13;23.40;91.50
41720;DHT22;27405;53.316;-6.294;2023-08-21T13:00:40;23.50;91.70
41720;DHT22;27405;53.316;-6.294;2023-08-21T13:03:06;23.60;91.50
41720;DHT22;27405;53.316;-6.294;2023-08-21T13:05:33;23.80;91.40
41720;DHT22;27405;53.316;-6.294;2023-08-21T13:08:00;23.80;91.10
41720;DHT22;27405;53.316;-6.294;2023-08-21T13:10:26;23.80;91.20
41720;DHT22;27405;53.316;-6.294;2023-08-21T13:12:52;23.80;91.30
41720;DHT22;27405;53.316;-6.294;2023-08-21T13:15:18;23.80;91.60
41720;DHT22;27405;53.316;-6.294;2023-08-21T13:17:44;23.80;91.40
41720;DHT22;27405;53.316;-6.294;2023-08-21T13:20:10;23.90;91.60
41720;DHT22;27405;53.316;-6.294;2023-08-21T13:22:47;23.90;91.30
41720;DHT22;27405;53.316;-6.294;2023-08-21T13:25:15;24.00;91.20
41720;DHT22;27405;53.316;-6.294;2023-08-21T13:27:41;24.10;90.90
41720;DHT22;27405;53.316;-6.294;2023-08-21T13:30:08;24.10;90.60
41720;DHT22;27405;53.316;-6.294;2023-08-21T13:32:34;24.10;90.40
41720;DHT22;27405;53.316;-6.294;2023-08-21T13:35:00;24.20;90.30
41720;DHT22;27405;53.316;-6.294;2023-08-21T13:37:26;24.30;90.00
41720;DHT22;27405;53.316;-6.294;2023-08-21T13:39:53;24.30;89.70
41720;DHT22;27405;53.316;-6.294;2023-08-21T13:42:20;24.30;89.60
41720;DHT22;27405;53.316;-6.294;2023-08-21T13:44:46;24.20;89.90
41720;DHT22;27405;53.316;-6.294;2023-08-21T13:47:12;24.20;90.10
41720;DHT22;27405;53.316;-6.294;2023-08-21T13:49:38;24.20;90.00
41720;DHT22;27405;53.316;-6.294;2023-08-21T13:52:04;24.20;89.60
41720;DHT22;27405;53.316;-6.294;2023-08-21T13:54:30;24.20;89.40
41720;DHT22;27405;53.316;-6.294;2023-08-21T13:56:56;24.10;89.30
41720;DHT22;27405;53.316;-6.294;2023-08-21T13:59:22;24.10;89.10
41720;DHT22;27405;53.316;-6.294;2023-08-21T14:05:10;24.00;89.20
41720;DHT22;27405;53.316;-6.294;2023-08-21T14:10:58;24.10;88.90
41720;DHT22;27405;53.316;-6.294;2023-08-21T14:13:25;24.10;88.90
41720;DHT22;27405;53.316;-6.294;2023-08-21T14:15:51;24.00;88.80
41720;DHT22;27405;53.316;-6.294;2023-08-21T14:18:17;24.00;88.60
41720;DHT22;27405;53.316;-6.294;2023-08-21T14:20:43;24.00;88.90
41720;DHT22;27405;53.316;-6.294;2023-08-21T14:23:09;24.00;89.20
41720;DHT22;27405;53.316;-6.294;2023-08-21T14:25:35;24.10;89.10
41720;DHT22;27405;53.316;-6.294;2023-08-21T14:28:03;24.10;88.70
41720;DHT22;27405;53.316;-6.294;2023-08-21T14:30:29;24.20;88.70
41720;DHT22;27405;53.316;-6.294;2023-08-21T14:32:55;24.20;88.40
41720;DHT22;27405;53.316;-6.294;2023-08-21T14:35:21;24.30;88.30
41720;DHT22;27405;53.316;-6.294;2023-08-21T14:37:47;24.30;88.10
41720;DHT22;27405;53.316;-6.294;2023-08-21T14:43:35;24.40;88.30
41720;DHT22;27405;53.316;-6.294;2023-08-21T14:46:01;24.50;88.10
41720;DHT22;27405;53.316;-6.294;2023-08-21T14:48:29;24.60;88.50
41720;DHT22;27405;53.316;-6.294;2023-08-21T14:50:56;25.00;88.30
41720;DHT22;27405;53.316;-6.294;2023-08-21T14:53:21;25.40;87.60
41720;DHT22;27405;53.316;-6.294;2023-08-21T14:55:49;25.90;86.60
41720;DHT22;27405;53.316;-6.294;2023-08-21T14:58:16;26.20;86.40
41720;DHT22;27405;53.316;-6.294;2023-08-21T15:00:42;26.60;85.50
41720;DHT22;27405;53.316;-6.294;2023-08-21T15:03:08;27.00;84.00
41720;DHT22;27405;53.316;-6.294;2023-08-21T15:05:34;27.20;83.20
41720;DHT22;27405;53.316;-6.294;2023-08-21T15:08:00;27.50;82.30
41720;DHT22;27405;53.316;-6.294;2023-08-21T15:13:48;27.80;79.70
41720;DHT22;27405;53.316;-6.294;2023-08-21T15:16:14;27.80;77.80
41720;DHT22;27405;53.316;-6.294;2023-08-21T15:18:40;27.70;78.00
41720;DHT22;27405;53.316;-6.294;2023-08-21T15:21:06;27.80;77.90
41720;DHT22;27405;53.316;-6.294;2023-08-21T15:23:32;27.80;77.20
41720;DHT22;27405;53.316;-6.294;2023-08-21T15:25:58;27.60;77.20
41720;DHT22;27405;53.316;-6.294;2023-08-21T15:31:46;26.90;77.60
41720;DHT22;27405;53.316;-6.294;2023-08-21T15:34:12;26.60;78.70
41720;DHT22;27405;53.316;-6.294;2023-08-21T15:36:38;26.40;79.00
41720;DHT22;27405;53.316;-6.294;2023-08-21T15:39:04;26.30;79.80
41720;DHT22;27405;53.316;-6.294;2023-08-21T15:41:30;26.20;80.10
41720;DHT22;27405;53.316;-6.294;2023-08-21T15:43:56;26.10;80.00
41720;DHT22;27405;53.316;-6.294;2023-08-21T15:46:22;25.90;80.40
41720;DHT22;27405;53.316;-6.294;2023-08-21T15:48:47;25.70;80.60
41720;DHT22;27405;53.316;-6.294;2023-08-21T15:51:13;25.50;81.50
41720;DHT22;27405;53.316;-6.294;2023-08-21T15:53:39;25.40;82.00
41720;DHT22;27405;53.316;-6.294;2023-08-21T15:56:06;25.30;82.40